Flight Track Log - Related Links

Times and Time Zones

All times are in EDT time to prevent confusion due to time zone crossing. See the EJA727 flight status page for this flight to view local times or setup timezone preferences in your user account.

Time Position Orientation Groundspeed Altitude Reporting Facility
EDT Latitude Longitude Course Direction KTS MPH feet Rate Location/Type
Sun 02:47:14 PM 41.3192 -95.9111 359° North 187 215 1,700  Level Minneapolis Center
Sun 02:48:03 PM 41.3667 -95.9117 359° North 238 274 3,900 2,486 Climbing Minneapolis Center
Sun 02:49:05 PM 41.4008 -95.8489 54° Northeast 264 304 6,300 2,468 Climbing Minneapolis Center
Sun 02:50:07 PM 41.3939 -95.7469 95° East 270 311 9,000 2,323 Climbing Minneapolis Center
Sun 02:51:09 PM 41.3867 -95.6622 96° East 277 319 11,100 2,496 Climbing Minneapolis Center
Sun 02:52:12 PM 41.3614 -95.5061 102° East 339 390 14,200 2,976 Climbing Minneapolis Center
Sun 02:53:14 PM 41.3367 -95.3431 101° East 373 429 17,300 2,613 Climbing Minneapolis Center
Sun 02:54:16 PM 41.3147 -95.2022 102° East 385 443 19,600 2,177 Climbing Minneapolis Center
Sun 02:55:18 PM 41.2919 -95.0494 101° East 411 473 21,800 2,081 Climbing Minneapolis Center
Sun 02:56:20 PM 41.2672 -94.8889 102° East 435 501 23,900 2,032 Climbing Minneapolis Center
Sun 02:57:22 PM 41.2411 -94.7278 102° East 444 511 26,000 2,049 Climbing Minneapolis Center
Sun 02:58:23 PM 41.2156 -94.5661 102° East 447 514 28,100 1,756 Climbing Minneapolis Center
Sun 02:59:25 PM 41.1906 -94.4044 102° East 448 516 29,600 1,516 Climbing Minneapolis Center
Sun 03:01:29 PM 41.1361 -94.0636 102° East 449 517 32,800 1,419 Climbing Minneapolis Center
Sun 03:02:31 PM 41.1086 -93.9061 103° East 444 511 34,000 1,065 Climbing Minneapolis Center
Sun 03:03:33 PM 41.0836 -93.7469 102° East 444 511 35,000 484 Climbing Minneapolis Center
Sun 03:04:35 PM 41.0503 -93.5553 103° East 446 513 35,000  Level Minneapolis Center
Sun 03:05:36 PM 41.0242 -93.3939 102° East 449 517 35,000  Level Minneapolis Center
Sun 03:06:38 PM 40.9972 -93.2336 103° East 449 517 35,000  Level Minneapolis Center
Sun 03:07:40 PM 40.9706 -93.0733 102° East 449 517 35,000  Level Minneapolis Center
Sun 03:08:42 PM 40.9433 -92.9122 103° East 449 517 35,000  Level Minneapolis Center
Sun 03:09:57 PM 40.9042 -92.6881 103° East 447 514 35,000  Level Chicago Center
Sun 03:10:35 PM 40.8872 -92.5922 103° East 448 516 35,000 185 Level Chicago Center
Sun 03:12:00 PM 40.8503 -92.3847 103° East  Level FlightAware
Sun 03:12:39 PM 40.8306 -92.2739 103° East 446 513 35,500  Level Chicago Center
Sun 03:13:41 PM 40.8033 -92.1175 103° East 441 507 36,500 968 Climbing Chicago Center
Sun 03:14:43 PM 40.7744 -91.9631 104° East 437 503 37,500 1,065 Climbing Chicago Center
Sun 03:15:45 PM 40.7411 -91.7756 103° East 438 504 38,700 726 Climbing Chicago Center
Sun 03:16:47 PM 40.7111 -91.6192 104° East 443 510 39,000 145 Climbing Chicago Center
Sun 03:17:49 PM 40.6817 -91.4581 104° East 453 521 39,000  Level Chicago Center
Sun 03:18:51 PM 40.6483 -91.2836 104° East 452 520 39,000  Level Chicago Center
Sun 03:19:54 PM 40.6183 -91.1256 104° East 447 514 39,000  Level Chicago Center
Sun 03:20:56 PM 40.5892 -90.9703 104° East 440 506 39,000  Level Chicago Center
Sun 03:21:58 PM 40.5581 -90.8136 105° East 443 510 39,000  Level Chicago Center
Sun 03:23:00 PM 40.5278 -90.6586 104° East 440 506 39,000  Level Chicago Center
Sun 03:24:02 PM 40.4969 -90.5022 104° East 444 511 39,000  Level Chicago Center
Sun 03:25:04 PM 40.4603 -90.3178 105° East 438 504 39,000  Level Chicago Center
Sun 03:26:06 PM 40.4292 -90.1656 105° East 436 502 39,000  Level Chicago Center
Sun 03:27:08 PM 40.3994 -90.0161 105° East 429 494 39,000  Level Chicago Center
Sun 03:28:10 PM 40.3686 -89.8664 105° East 432 497 39,000  Level Chicago Center
Sun 03:29:12 PM 40.3314 -89.6856 105° East 432 497 39,000  Level Chicago Center
Sun 03:30:14 PM 40.3008 -89.5353 105° East 431 496 39,000  Level Chicago Center
Sun 03:31:16 PM 40.2689 -89.3822 105° East 435 501 39,000  Level Chicago Center
Sun 03:32:18 PM 40.2369 -89.2289 105° East 438 504 39,000  Level Chicago Center
Sun 03:33:21 PM 40.2061 -89.0744 105° East 440 506 39,000  Level Chicago Center
Sun 03:34:23 PM 40.1733 -88.9200 105° East 442 509 39,000  Level Chicago Center
Sun 03:35:25 PM 40.1339 -88.7356 106° East 441 507 39,000  Level Chicago Center
Sun 03:36:27 PM 40.1011 -88.5833 106° East 438 504 39,000  Level Chicago Center
Sun 03:37:29 PM 40.0681 -88.4303 106° East 438 504 39,000  Level Chicago Center
Sun 03:38:31 PM 40.0361 -88.2786 105° East 434 499 39,000  Level Chicago Center
Sun 03:39:33 PM 40.0128 -88.1242 101° East 438 504 39,000  Level Chicago Center
Sun 03:40:35 PM 39.9836 -87.9367 101° East 440 506 39,000  Level Chicago Center
Sun 03:41:37 PM 39.9578 -87.7775 102° East 448 516 39,000  Level Chicago Center
Sun 03:41:59 PM 39.9483 -87.7144 101° East 448 516 39,000  Level Indianapolis Center
Sun 03:43:01 PM 39.9225 -87.5553 102° East 451 519 39,000  Level Indianapolis Center
Sun 03:44:03 PM 39.8972 -87.3950 102° East 454 522 39,000  Level Indianapolis Center
Sun 03:45:05 PM 39.8711 -87.2369 102° East 451 519 39,000  Level Indianapolis Center
Sun 03:46:07 PM 39.8453 -87.0803 102° East 445 512 39,000  Level Indianapolis Center
Sun 03:47:09 PM 39.8200 -86.9228 102° East 447 514 39,000  Level Indianapolis Center
Sun 03:48:11 PM 39.7892 -86.7378 102° East 440 506 39,000  Level Indianapolis Center
Sun 03:49:13 PM 39.7631 -86.5819 102° East 442 509 39,000  Level Indianapolis Center
Sun 03:50:15 PM 39.7372 -86.4281 102° East 441 507 39,000  Level Indianapolis Center
Sun 03:51:17 PM 39.7086 -86.2597 102° East 442 509 39,000  Level Indianapolis Center
Sun 03:52:19 PM 39.6808 -86.1003 103° East 441 507 39,000  Level Indianapolis Center
Sun 03:53:21 PM 39.6539 -85.9456 103° East 441 507 39,000  Level Indianapolis Center
Sun 03:54:23 PM 39.6264 -85.7911 103° East 442 509 39,000  Level Indianapolis Center
Sun 03:55:25 PM 39.5931 -85.6381 106° East 443 510 39,000  Level Indianapolis Center
Sun 03:56:27 PM 39.5533 -85.4539 106° East 445 512 39,000  Level Indianapolis Center
Sun 03:57:29 PM 39.5200 -85.3000 106° East 444 511 39,000  Level Indianapolis Center
Sun 03:58:31 PM 39.4864 -85.1464 106° East 446 513 39,000  Level Indianapolis Center
Sun 03:59:33 PM 39.4533 -84.9947 106° East 442 509 39,000  Level Indianapolis Center
Sun 04:01:00 PM 39.4073 -84.7881 106° East  Level FlightAware
Sun 04:01:38 PM 39.3817 -84.6719 106° East 439 505 39,000  Level Indianapolis Center
Sun 04:02:40 PM 39.3472 -84.5197 106° East 439 505 39,000 -48 Level Indianapolis Center
Sun 04:03:42 PM 39.3133 -84.3689 106° East 437 503 38,900  Descending Indianapolis Center
Sun 04:04:44 PM 39.2792 -84.2186 106° East 436 502 39,000 48 Climbing Indianapolis Center
Sun 04:05:46 PM 39.2447 -84.0675 106° East 435 501 39,000  Level Indianapolis Center
Sun 04:06:48 PM 39.2039 -83.8917 107° East 438 504 39,000  Level Indianapolis Center
Sun 04:07:49 PM 39.1689 -83.7414 107° East 435 501 39,000  Level Indianapolis Center
Sun 04:08:51 PM 39.1339 -83.5925 107° East 433 498 39,000  Level Indianapolis Center
Sun 04:09:53 PM 39.0981 -83.4433 107° East 435 501 39,000  Level Indianapolis Center
Sun 04:10:55 PM 39.0631 -83.2928 107° East 436 502 39,000  Level Indianapolis Center
Sun 04:11:57 PM 39.0250 -83.1319 107° East 437 503 39,000  Level Indianapolis Center
Sun 04:12:59 PM 38.9889 -82.9833 107° East 437 503 39,000  Level Indianapolis Center
Sun 04:14:01 PM 38.9533 -82.8328 107° East 438 504 39,000  Level Indianapolis Center
Sun 04:15:03 PM 38.9161 -82.6825 108° East 442 509 39,000  Level Indianapolis Center
Sun 04:16:05 PM 38.8714 -82.5014 108° East 444 511 39,000  Level Indianapolis Center
Sun 04:17:07 PM 38.8347 -82.3492 107° East 446 513 39,000  Level Indianapolis Center
Sun 04:18:09 PM 38.7961 -82.1972 108° East 449 517 39,000  Level Indianapolis Center
Sun 04:19:11 PM 38.7586 -82.0450 107° East 450 518 39,000  Level Indianapolis Center
Sun 04:20:13 PM 38.7183 -81.8944 109° East 448 516 39,000 -339 Level Indianapolis Center
Sun 04:21:15 PM 38.6772 -81.7425 109° East 452 520 38,300 -484 Descending Indianapolis Center
Sun 04:22:17 PM 38.6283 -81.5636 109° East 450 518 38,000 -97 Descending Indianapolis Center
Sun 04:24:20 PM 38.5511 -81.2819 109° East 436 502 38,000 -97 Level Indianapolis Center
Sun 04:25:22 PM 38.5097 -81.1353 110° East 441 507 37,700 -677 Descending Indianapolis Center
Sun 04:26:24 PM 38.4669 -80.9875 110° East 444 511 36,600 -1,161 Descending Indianapolis Center
Sun 04:27:26 PM 38.4189 -80.8092 109° East 444 511 35,300 -1,210 Descending Indianapolis Center
Sun 04:28:28 PM 38.3761 -80.6608 110° East 446 513 34,100 -1,046 Descending Indianapolis Center
Sun 04:29:15 PM 38.3417 -80.5528 112° Southeast 437 503 33,400 -1,402 Descending Washington Center
Sun 04:30:15 PM 38.3039 -80.4100 109° East 449 517 31,600 -1,983 Descending Washington Center
Sun 04:31:13 PM 38.2578 -80.2564 111° Southeast 460 529 29,500 -2,118 Descending Washington Center
Sun 04:32:14 PM 38.2156 -80.1031 109° East 460 529 27,400 -2,083 Descending Washington Center
Sun 04:33:14 PM 38.1731 -79.9553 110° East 455 524 25,300 -2,300 Descending Washington Center
Sun 04:34:14 PM 38.1267 -79.7942 110° East 455 524 22,800 -2,231 Descending Washington Center
Sun 04:35:15 PM 38.0858 -79.6519 110° East 441 507 20,800 -1,412 Descending Washington Center
Sun 04:36:13 PM 38.0444 -79.5125 111° Southeast 428 493 20,000 -403 Descending Washington Center
Sun 04:37:14 PM 38.0031 -79.3733 111° Southeast 418 481 20,000 -198 Level Washington Center
Sun 04:38:14 PM 37.9617 -79.2344 111° Southeast 418 481 19,600 -496 Descending Washington Center
Sun 04:39:15 PM 37.9256 -79.1142 111° Southeast 418 481 19,000 -303 Descending Washington Center
Sun 04:40:13 PM 37.8897 -78.9861 109° East 405 466 19,000 -605 Level Washington Center
Sun 04:41:14 PM 37.8514 -78.8608 111° Southeast 391 450 17,800 -1,339 Descending Washington Center
Sun 04:42:14 PM 37.8128 -78.7408 112° Southeast 380 437 16,300 600 Descending Washington Center
Sun 04:43:14 PM 37.7783 -78.6239 110° East 369 425 19,000 -1,587 Climbing Washington Center
Sun 04:44:15 PM 37.7417 -78.5017 111° Southeast 349 402 13,100 -3,731 Descending Washington Center
Sun 04:45:13 PM 37.7108 -78.3981 111° Southeast 335 386 11,600 -1,525 Descending Washington Center
Sun 04:46:13 PM 37.6775 -78.2997 113° Southeast 314 361 10,100 -1,279 Descending Washington Center
Sun 04:47:15 PM 37.6506 -78.2094 111° Southeast 297 342 9,000 -537 Descending Washington Center
Sun 04:48:16 PM 37.6231 -78.1300 114° Southeast 281 323 9,000  Level Washington Center
Sun 04:49:13 PM 37.5936 -78.0372 112° Southeast 268 308 9,000  Level Washington Center
Sun 04:50:14 PM 37.5661 -77.9472 111° Southeast 263 303 9,000 -1,385 Level Washington Center
Sun 04:52:15 PM 37.5736 -77.7667 87° East 258 297 4,800 -2,022 Descending Washington Center
Sun 04:53:15 PM 37.5667 -77.6878 96° East 242 278 2,900 -1,119 Descending Washington Center
Sun 04:54:13 PM 37.5278 -77.6475 141° Southeast 193 222 2,600 -310 Descending Washington Center

Login

Don't have an account? Register now (free) for customized features, flight alerts, and more!